createdAt,value
2022-09-25T00:01:33.683Z,75.02
2022-09-25T00:04:03.242Z,74.99
2022-09-25T00:06:32.953Z,74.92
2022-09-25T00:09:01.743Z,74.71
2022-09-25T00:11:33.370Z,74.72
2022-09-25T00:14:03.279Z,74.68
2022-09-25T00:16:32.928Z,74.75
2022-09-25T00:19:19.994Z,74.80
2022-09-25T00:21:52.794Z,74.65
2022-09-25T00:24:21.652Z,74.95
2022-09-25T00:26:50.570Z,74.97
2022-09-25T00:29:20.322Z,74.96
2022-09-25T00:31:48.850Z,74.88
2022-09-25T00:34:17.371Z,74.88
2022-09-25T00:36:46.072Z,75.03
2022-09-25T00:39:14.747Z,75.05
2022-09-25T00:41:43.212Z,75.03
2022-09-25T00:44:44.050Z,75.27
2022-09-25T00:47:16.063Z,75.16
2022-09-25T00:49:45.445Z,75.22
2022-09-25T00:52:14.199Z,75.12
2022-09-25T00:54:48.165Z,75.09
2022-09-25T00:57:20.463Z,75.29
2022-09-25T00:59:54.135Z,75.41
2022-09-25T01:02:26.967Z,75.27
2022-09-25T01:05:00.003Z,75.48
2022-09-25T01:07:28.932Z,75.55
2022-09-25T01:09:58.719Z,75.58
2022-09-25T01:12:27.455Z,75.52
2022-09-25T01:14:56.754Z,75.64
2022-09-25T01:17:32.584Z,75.79
2022-09-25T01:20:15.891Z,75.72
2022-09-25T01:22:58.473Z,75.99
2022-09-25T01:25:41.996Z,76.08
2022-09-25T01:28:25.426Z,76.13
2022-09-25T01:31:03.051Z,75.98
2022-09-25T01:33:35.037Z,75.78
2022-09-25T01:36:11.250Z,75.89
2022-09-25T01:38:44.759Z,76.08
2022-09-25T01:41:18.266Z,76.19
2022-09-25T01:43:52.241Z,76.36
2022-09-25T01:46:24.454Z,76.32
2022-09-25T01:48:59.873Z,76.58
2022-09-25T01:51:31.312Z,76.78
2022-09-25T01:54:05.360Z,76.60
2022-09-25T01:56:40.079Z,76.63
2022-09-25T01:59:16.928Z,76.77
2022-09-25T02:01:47.042Z,76.78
2022-09-25T02:04:21.211Z,77.03
2022-09-25T02:06:53.037Z,76.91
2022-09-25T02:09:26.873Z,77.04
2022-09-25T02:11:59.711Z,77.00
2022-09-25T02:14:33.821Z,76.97
2022-09-25T02:17:05.222Z,77.09
2022-09-25T02:19:53.674Z,77.23
2022-09-25T02:22:26.071Z,77.13
2022-09-25T02:25:00.363Z,77.17
2022-09-25T02:27:29.267Z,77.21
2022-09-25T02:29:58.330Z,77.26
2022-09-25T02:32:31.361Z,77.29
2022-09-25T02:35:00.822Z,77.44
2022-09-25T02:37:30.476Z,77.54
2022-09-25T02:40:01.599Z,77.65
2022-09-25T02:42:39.367Z,77.74
2022-09-25T02:45:14.449Z,77.89
2022-09-25T02:47:54.122Z,77.91
2022-09-25T02:50:25.949Z,78.09
2022-09-25T02:53:03.526Z,78.29
2022-09-25T02:55:37.439Z,78.32
2022-09-25T02:58:12.769Z,78.61
2022-09-25T03:00:43.983Z,78.77
2022-09-25T03:03:16.465Z,78.95
2022-09-25T03:05:46.561Z,78.93
2022-09-25T03:08:33.830Z,79.19
2022-09-25T03:11:04.877Z,79.32
2022-09-25T03:13:34.294Z,79.42
2022-09-25T03:16:07.621Z,79.52
2022-09-25T03:18:37.463Z,79.59
2022-09-25T03:21:06.336Z,79.76
2022-09-25T03:23:34.934Z,79.69
2022-09-25T03:26:04.656Z,79.95
2022-09-25T03:28:36.359Z,80.03
2022-09-25T03:31:08.037Z,79.95
2022-09-25T03:33:38.359Z,79.99
2022-09-25T03:36:10.585Z,80.04
2022-09-25T03:38:40.608Z,80.18
2022-09-25T03:41:11.324Z,80.35
2022-09-25T03:43:42.839Z,80.41
2022-09-25T03:46:13.783Z,80.44
2022-09-25T03:48:42.440Z,80.50
2022-09-25T03:51:11.381Z,80.73
2022-09-25T03:53:40.737Z,80.76
2022-09-25T03:56:12.708Z,80.60
2022-09-25T03:58:41.575Z,80.79
2022-09-25T04:01:10.396Z,80.82
2022-09-25T04:03:39.466Z,80.92
2022-09-25T04:06:09.761Z,81.03
2022-09-25T04:08:38.403Z,81.03
2022-09-25T04:11:07.097Z,81.37
2022-09-25T04:13:36.898Z,81.36
2022-09-25T04:16:07.791Z,81.52
2022-09-25T04:18:36.443Z,81.44
2022-09-25T04:21:08.068Z,81.68
2022-09-25T04:23:37.615Z,81.86
2022-09-25T04:26:07.278Z,81.72
2022-09-25T04:28:35.937Z,82.32
2022-09-25T04:31:04.477Z,82.60
2022-09-25T04:33:48.660Z,82.89
2022-09-25T04:36:18.351Z,82.86
2022-09-25T04:38:47.738Z,82.62
2022-09-25T04:41:19.106Z,82.70
2022-09-25T04:43:48.215Z,82.78
2022-09-25T04:46:21.949Z,82.91
2022-09-25T04:48:51.200Z,83.05
2022-09-25T04:51:19.841Z,82.77
2022-09-25T04:53:48.609Z,83.21
2022-09-25T04:56:17.849Z,83.29
2022-09-25T04:58:48.661Z,83.32
2022-09-25T05:01:19.111Z,83.43
2022-09-25T05:03:50.042Z,84.10
2022-09-25T05:06:18.903Z,83.86
2022-09-25T05:08:49.173Z,84.14
2022-09-25T05:11:17.707Z,84.25
2022-09-25T05:13:50.773Z,84.23
2022-09-25T05:16:19.804Z,84.17
2022-09-25T05:18:48.354Z,84.36
2022-09-25T05:21:17.063Z,84.68
2022-09-25T05:23:45.544Z,84.66
2022-09-25T05:26:14.027Z,85.02
2022-09-25T05:28:42.455Z,85.27
2022-09-25T05:31:11.531Z,85.28
2022-09-25T05:33:40.475Z,85.59
2022-09-25T05:36:10.074Z,86.06
2022-09-25T05:38:41.950Z,86.21
2022-09-25T05:41:11.452Z,86.40
2022-09-25T05:43:42.338Z,86.56
2022-09-25T05:46:11.410Z,86.70
2022-09-25T05:48:40.400Z,86.53
2022-09-25T05:51:09.318Z,86.79
2022-09-25T05:53:37.915Z,86.72
2022-09-25T05:56:06.777Z,86.84
2022-09-25T05:58:36.203Z,86.76
2022-09-25T06:01:06.189Z,86.75
2022-09-25T06:03:35.616Z,86.84
2022-09-25T06:06:05.582Z,86.58
2022-09-25T06:08:34.957Z,86.47
2022-09-25T06:11:04.084Z,86.33
2022-09-25T06:13:36.162Z,86.32
2022-09-25T06:16:13.039Z,86.22
2022-09-25T06:18:41.572Z,86.12
2022-09-25T06:21:10.295Z,86.01
2022-09-25T06:23:38.877Z,86.02
2022-09-25T06:26:08.856Z,86.12
2022-09-25T06:28:40.039Z,85.94
2022-09-25T06:31:11.148Z,85.91
2022-09-25T06:33:39.791Z,85.96
2022-09-25T06:36:08.427Z,85.85
2022-09-25T06:38:37.131Z,85.99
2022-09-25T06:41:05.999Z,85.92
2022-09-25T06:43:35.180Z,85.91
2022-09-25T06:46:04.335Z,85.96
2022-09-25T06:48:33.093Z,85.97
2022-09-25T06:51:01.819Z,86.09
2022-09-25T06:53:30.721Z,86.04
2022-09-25T06:55:59.590Z,85.79
2022-09-25T06:58:30.064Z,86.03
2022-09-25T07:00:58.976Z,86.01
2022-09-25T07:03:46.641Z,85.83
2022-09-25T07:06:21.544Z,85.93
2022-09-25T07:08:51.533Z,85.84
2022-09-25T07:12:31.895Z,85.78
2022-09-25T07:14:47.833Z,85.81
2022-09-25T07:17:19.908Z,85.66
2022-09-25T07:20:29.953Z,85.55
2022-09-25T07:23:03.320Z,85.30
2022-09-25T07:25:31.930Z,85.33
2022-09-25T07:28:00.487Z,85.00
2022-09-25T07:30:31.931Z,84.98
2022-09-25T07:33:31.933Z,84.89
2022-09-25T07:36:09.201Z,84.61
2022-09-25T07:38:39.181Z,84.50
2022-09-25T07:41:12.429Z,84.18
2022-09-25T07:43:42.775Z,84.11
2022-09-25T07:46:12.479Z,84.10
2022-09-25T07:48:40.998Z,84.07
2022-09-25T07:51:11.743Z,83.87
2022-09-25T07:53:44.147Z,83.87
2022-09-25T07:56:12.868Z,83.78
2022-09-25T07:58:42.103Z,83.66
2022-09-25T08:01:12.907Z,83.75
2022-09-25T08:03:41.518Z,83.54
2022-09-25T08:06:13.656Z,83.52
2022-09-25T08:08:47.659Z,83.40
2022-09-25T08:11:17.660Z,83.38
2022-09-25T08:13:46.542Z,83.46
2022-09-25T08:16:18.047Z,83.20
2022-09-25T08:18:47.260Z,83.07
2022-09-25T08:21:18.946Z,83.00
2022-09-25T08:23:52.057Z,82.88
2022-09-25T08:26:22.449Z,82.57
2022-09-25T08:28:51.477Z,82.60
2022-09-25T08:31:21.084Z,82.36
2022-09-25T08:33:51.839Z,81.98
2022-09-25T08:36:21.170Z,81.85
2022-09-25T08:38:52.547Z,82.01
2022-09-25T08:41:25.587Z,81.84
2022-09-25T08:44:01.804Z,81.80
2022-09-25T08:46:58.246Z,82.06
2022-09-25T08:49:30.643Z,81.81
2022-09-25T08:52:03.011Z,81.83
2022-09-25T08:54:36.728Z,81.80
2022-09-25T08:57:16.453Z,81.72
2022-09-25T08:59:49.036Z,81.37
2022-09-25T09:02:20.577Z,81.33
2022-09-25T09:04:53.328Z,81.02
2022-09-25T09:07:27.690Z,80.71
2022-09-25T09:10:02.704Z,80.11
2022-09-25T09:12:38.431Z,79.63
2022-09-25T09:15:20.546Z,79.30
2022-09-25T09:17:49.022Z,79.07
2022-09-25T09:20:21.597Z,79.26
2022-09-25T09:22:52.600Z,79.04
2022-09-25T09:25:28.510Z,79.09
2022-09-25T09:28:20.247Z,78.44
2022-09-25T09:30:59.993Z,78.16
2022-09-25T09:33:41.061Z,77.90
2022-09-25T09:36:19.259Z,77.94
2022-09-25T09:38:57.187Z,78.00
2022-09-25T09:41:38.404Z,77.17
2022-09-25T09:44:24.061Z,76.92
2022-09-25T09:47:02.949Z,76.86
2022-09-25T09:49:37.467Z,76.62
2022-09-25T09:52:13.879Z,76.09
2022-09-25T09:54:47.906Z,75.83
2022-09-25T09:57:21.668Z,75.50
2022-09-25T09:59:58.379Z,75.80
2022-09-25T10:02:36.871Z,75.68
2022-09-25T10:05:15.355Z,75.43
2022-09-25T10:07:46.016Z,74.90
2022-09-25T10:10:16.244Z,75.13
2022-09-25T10:12:50.264Z,75.26
2022-09-25T10:15:26.954Z,74.94
2022-09-25T10:17:58.451Z,75.13
2022-09-25T10:20:35.322Z,74.97
2022-09-25T10:23:06.290Z,74.15
2022-09-25T10:25:39.649Z,74.10
2022-09-25T10:28:29.195Z,73.77
2022-09-25T10:30:59.379Z,73.26
2022-09-25T10:33:29.806Z,73.37
2022-09-25T10:35:59.053Z,73.10
2022-09-25T10:38:38.220Z,73.05
2022-09-25T10:41:11.493Z,72.50
2022-09-25T10:44:01.667Z,72.57
2022-09-25T10:46:52.483Z,72.05
2022-09-25T10:49:41.565Z,72.48
2022-09-25T10:52:11.991Z,72.21
2022-09-25T10:54:45.207Z,71.89
2022-09-25T10:57:33.486Z,71.99
2022-09-25T11:00:05.640Z,71.73
2022-09-25T11:02:38.434Z,71.45
2022-09-25T11:05:18.028Z,71.57
2022-09-25T11:07:51.683Z,71.31
2022-09-25T11:10:22.874Z,71.13
2022-09-25T11:12:52.390Z,71.41
2022-09-25T11:15:23.206Z,71.26
2022-09-25T11:17:53.644Z,71.24
2022-09-25T11:20:28.988Z,70.18
2022-09-25T11:23:15.763Z,70.28
2022-09-25T11:25:53.097Z,69.69
2022-09-25T11:28:30.340Z,69.97
2022-09-25T11:31:02.931Z,70.24
2022-09-25T11:33:42.331Z,70.37
2022-09-25T11:36:17.700Z,69.82
2022-09-25T11:39:08.328Z,69.46
2022-09-25T11:41:43.150Z,69.89
2022-09-25T11:44:26.120Z,69.79
2022-09-25T11:47:05.004Z,69.05
2022-09-25T11:49:35.833Z,68.52
2022-09-25T11:52:36.539Z,68.51
2022-09-25T11:55:43.671Z,67.58
2022-09-25T11:58:37.154Z,68.70
2022-09-25T12:01:14.753Z,68.87
2022-09-25T12:03:58.013Z,68.63
2022-09-25T12:06:46.614Z,68.90
2022-09-25T12:09:29.719Z,68.48
2022-09-25T12:12:06.784Z,67.51
2022-09-25T12:14:49.867Z,67.21
2022-09-25T12:17:29.095Z,67.09
2022-09-25T12:20:06.742Z,67.49
2022-09-25T12:22:48.027Z,67.42
2022-09-25T12:25:33.878Z,66.54
2022-09-25T12:28:13.269Z,67.06
2022-09-25T12:30:55.446Z,66.54
2022-09-25T12:33:35.056Z,67.06
2022-09-25T12:36:10.838Z,67.34
2022-09-25T12:38:47.533Z,65.43
2022-09-25T12:41:24.496Z,65.57
2022-09-25T12:44:01.119Z,66.16
2022-09-25T12:46:37.531Z,65.84
2022-09-25T12:49:13.667Z,66.36
2022-09-25T12:51:46.645Z,66.45
2022-09-25T12:54:27.517Z,65.61
2022-09-25T12:57:00.300Z,65.47
2022-09-25T12:59:35.469Z,65.94
2022-09-25T13:02:09.987Z,66.00
2022-09-25T13:04:56.635Z,66.17
2022-09-25T13:07:32.206Z,65.45
2022-09-25T13:10:03.562Z,66.48
2022-09-25T13:12:36.200Z,66.45
2022-09-25T13:15:10.061Z,65.44
2022-09-25T13:17:40.439Z,66.21
2022-09-25T13:20:49.940Z,65.21
2022-09-25T13:23:28.050Z,65.20
2022-09-25T13:26:00.291Z,64.95
2022-09-25T13:28:32.248Z,64.68
2022-09-25T13:31:09.113Z,65.06
2022-09-25T13:33:44.747Z,64.90
2022-09-25T13:36:41.234Z,65.24
2022-09-25T13:39:39.697Z,65.22
2022-09-25T13:42:16.005Z,65.35
2022-09-25T13:45:06.006Z,65.13
2022-09-25T13:47:54.717Z,64.46
2022-09-25T13:50:32.056Z,64.88
2022-09-25T13:53:26.375Z,64.75
2022-09-25T13:56:29.874Z,64.98
2022-09-25T13:59:07.133Z,65.38
2022-09-25T14:01:39.275Z,64.69
2022-09-25T14:04:21.295Z,64.17
2022-09-25T14:06:53.414Z,63.73
2022-09-25T14:09:24.433Z,63.70
2022-09-25T14:12:02.187Z,64.16
2022-09-25T14:14:36.638Z,63.79
2022-09-25T14:17:07.906Z,64.14
2022-09-25T14:19:42.152Z,65.19
2022-09-25T14:22:22.462Z,65.48
2022-09-25T14:24:52.616Z,65.57
2022-09-25T14:27:25.731Z,65.78
2022-09-25T14:30:04.419Z,66.16
2022-09-25T14:32:54.977Z,66.11
2022-09-25T14:35:42.451Z,66.81
2022-09-25T14:38:35.193Z,66.74
2022-09-25T14:41:22.214Z,67.42
2022-09-25T14:44:09.175Z,67.05
2022-09-25T14:46:40.978Z,67.50
2022-09-25T14:49:18.263Z,67.19
2022-09-25T14:51:54.095Z,66.86
2022-09-25T14:54:25.763Z,67.00
2022-09-25T14:56:57.237Z,67.70
2022-09-25T14:59:39.500Z,67.53
2022-09-25T15:02:16.308Z,67.87
2022-09-25T15:04:45.136Z,67.96
2022-09-25T15:07:17.657Z,67.29
2022-09-25T15:09:47.711Z,67.57
2022-09-25T15:12:20.644Z,67.41
2022-09-25T15:15:05.980Z,67.44
2022-09-25T15:17:46.135Z,67.30
2022-09-25T15:20:16.961Z,67.20
2022-09-25T15:22:50.309Z,66.96
2022-09-25T15:25:24.078Z,67.24
2022-09-25T15:27:53.478Z,67.53
2022-09-25T15:30:25.516Z,67.28
2022-09-25T15:33:00.861Z,67.10
2022-09-25T15:35:32.323Z,67.07
2022-09-25T15:38:11.888Z,66.70
2022-09-25T15:40:41.084Z,67.16
2022-09-25T15:43:13.470Z,66.80
2022-09-25T15:45:45.947Z,66.27
2022-09-25T15:48:29.370Z,66.04
2022-09-25T15:51:01.188Z,65.96
2022-09-25T15:53:32.343Z,66.18
2022-09-25T15:56:59.864Z,66.14
2022-09-25T16:00:02.034Z,66.48
2022-09-25T16:02:54.982Z,66.94
2022-09-25T16:05:30.256Z,66.86
2022-09-25T16:08:17.284Z,67.12
2022-09-25T16:10:50.079Z,67.03
2022-09-25T16:13:26.892Z,67.39
2022-09-25T16:15:56.506Z,67.49
2022-09-25T16:18:39.151Z,67.82
2022-09-25T16:21:19.257Z,67.98
2022-09-25T16:23:56.959Z,68.27
2022-09-25T16:26:35.738Z,68.43
2022-09-25T16:29:17.802Z,68.79
2022-09-25T16:31:47.277Z,69.14
2022-09-25T16:34:25.581Z,69.52
2022-09-25T16:36:57.673Z,69.67
2022-09-25T16:39:29.546Z,69.76
2022-09-25T16:42:00.543Z,69.85
2022-09-25T16:44:42.426Z,70.03
2022-09-25T16:47:19.664Z,70.23
2022-09-25T16:50:07.628Z,70.26
2022-09-25T16:52:49.837Z,70.40
2022-09-25T16:55:22.570Z,70.37
2022-09-25T16:57:53.020Z,70.39
2022-09-25T17:00:24.681Z,70.81
2022-09-25T17:03:03.758Z,71.03
2022-09-25T17:05:32.807Z,71.16
2022-09-25T17:08:11.877Z,71.30
2022-09-25T17:10:40.669Z,71.39
2022-09-25T17:13:13.332Z,71.60
2022-09-25T17:15:42.389Z,71.66
2022-09-25T17:18:17.322Z,71.85
2022-09-25T17:20:47.161Z,72.14
2022-09-25T17:23:18.087Z,72.62
2022-09-25T17:25:50.003Z,72.61
2022-09-25T17:28:18.514Z,73.33
2022-09-25T17:30:47.039Z,73.62
2022-09-25T17:33:18.336Z,73.57
2022-09-25T17:35:51.327Z,73.48
2022-09-25T17:38:20.231Z,73.49
2022-09-25T17:43:42.664Z,73.85
2022-09-25T17:46:16.044Z,73.93
2022-09-25T17:48:53.939Z,73.91
2022-09-25T17:51:31.171Z,74.03
2022-09-25T17:54:01.818Z,74.13
2022-09-25T17:56:30.480Z,74.25
2022-09-25T17:59:00.008Z,74.32
2022-09-25T18:01:34.079Z,74.38
2022-09-25T18:04:18.215Z,74.85
2022-09-25T18:06:46.825Z,74.94
2022-09-25T18:09:15.783Z,75.20
2022-09-25T18:11:44.609Z,75.43
2022-09-25T18:14:14.986Z,75.94
2022-09-25T18:16:45.208Z,75.99
2022-09-25T18:19:37.799Z,76.13
2022-09-25T18:22:20.845Z,76.34
2022-09-25T18:24:54.036Z,76.58
2022-09-25T18:27:24.550Z,77.06
2022-09-25T18:29:53.530Z,77.22
2022-09-25T18:32:23.431Z,77.18
2022-09-25T18:34:51.975Z,77.57
2022-09-25T18:37:20.537Z,77.40
2022-09-25T18:39:50.225Z,77.50
2022-09-25T18:42:19.708Z,77.81
2022-09-25T18:44:48.521Z,78.10
2022-09-25T18:47:26.832Z,78.11
2022-09-25T18:50:24.106Z,78.30
2022-09-25T18:53:03.251Z,78.53
2022-09-25T18:56:41.841Z,78.66
2022-09-25T18:59:22.787Z,78.89
2022-09-25T19:02:16.214Z,78.84
2022-09-25T19:04:45.128Z,79.27
2022-09-25T19:07:13.828Z,79.48
2022-09-25T19:09:42.582Z,79.80
2022-09-25T19:12:16.595Z,79.79
2022-09-25T19:14:46.230Z,80.14
2022-09-25T19:17:15.561Z,80.43
2022-09-25T19:19:44.430Z,80.65
2022-09-25T19:22:17.231Z,80.79
2022-09-25T19:24:46.189Z,81.12
2022-09-25T19:27:16.286Z,81.16
2022-09-25T19:29:46.299Z,81.34
2022-09-25T19:32:17.326Z,81.74
2022-09-25T19:34:45.959Z,81.73
2022-09-25T19:37:15.007Z,81.87
2022-09-25T19:40:02.553Z,81.59
2022-09-25T19:42:33.088Z,81.43
2022-09-25T19:45:01.531Z,81.23
2022-09-25T19:47:31.271Z,81.65
2022-09-25T19:49:59.797Z,81.87
2022-09-25T19:52:28.625Z,82.02
2022-09-25T19:54:57.490Z,82.17
2022-09-25T19:57:27.097Z,82.25
2022-09-25T19:59:55.608Z,82.43
2022-09-25T20:02:24.381Z,82.39
2022-09-25T20:04:52.877Z,82.52
2022-09-25T20:07:21.389Z,82.52
2022-09-25T20:09:49.905Z,82.67
2022-09-25T20:12:18.481Z,82.74
2022-09-25T20:14:48.282Z,82.78
2022-09-25T20:17:17.175Z,82.93
2022-09-25T20:19:45.574Z,82.91
2022-09-25T20:22:14.604Z,83.06
2022-09-25T20:24:43.211Z,83.21
2022-09-25T20:27:11.677Z,83.24
2022-09-25T20:29:40.123Z,83.23
2022-09-25T20:32:09.169Z,83.32
2022-09-25T20:34:37.601Z,83.60
2022-09-25T20:37:06.016Z,83.56
2022-09-25T20:39:34.438Z,83.60
2022-09-25T20:42:02.965Z,83.51
2022-09-25T20:44:31.458Z,83.70
2022-09-25T20:46:59.871Z,83.90
2022-09-25T20:49:28.257Z,84.22
2022-09-25T20:51:56.674Z,84.38
2022-09-25T20:54:25.304Z,84.47
2022-09-25T20:56:54.027Z,84.39
2022-09-25T20:59:22.774Z,84.52
2022-09-25T21:01:51.812Z,84.88
2022-09-25T21:04:20.381Z,85.07
2022-09-25T21:06:49.456Z,84.95
2022-09-25T21:09:20.755Z,84.72
2022-09-25T21:11:49.791Z,84.99
2022-09-25T21:14:20.699Z,84.83
2022-09-25T21:16:50.607Z,84.84
2022-09-25T21:19:20.961Z,85.22
2022-09-25T21:21:49.966Z,85.59
2022-09-25T21:24:20.658Z,85.22
2022-09-25T21:26:50.584Z,85.22
2022-09-25T21:29:20.509Z,85.28
2022-09-25T21:31:50.861Z,85.28
2022-09-25T21:34:21.217Z,85.26
2022-09-25T21:36:49.689Z,85.38
2022-09-25T21:39:21.002Z,85.89
2022-09-25T21:41:52.756Z,85.70
2022-09-25T21:44:24.145Z,85.84
2022-09-25T21:46:52.596Z,85.64
2022-09-25T21:49:22.658Z,86.01
2022-09-25T21:51:51.753Z,86.31
2022-09-25T21:54:21.621Z,86.31
2022-09-25T21:56:50.067Z,86.29
2022-09-25T21:59:19.112Z,86.60
2022-09-25T22:01:48.476Z,86.69
2022-09-25T22:04:16.995Z,86.43
2022-09-25T22:06:46.992Z,86.49
2022-09-25T22:09:18.643Z,86.95
2022-09-25T22:11:48.483Z,87.08
2022-09-25T22:14:17.081Z,87.54
2022-09-25T22:16:47.293Z,87.76
2022-09-25T22:19:19.356Z,87.50
2022-09-25T22:21:49.471Z,87.51
2022-09-25T22:24:18.201Z,87.56
2022-09-25T22:26:48.868Z,88.09
2022-09-25T22:29:19.977Z,88.15
2022-09-25T22:31:49.274Z,88.28
2022-09-25T22:34:21.728Z,88.40
2022-09-25T22:36:56.237Z,88.33
2022-09-25T22:39:29.015Z,88.45
2022-09-25T22:41:58.568Z,88.07
2022-09-25T22:44:27.335Z,88.21
2022-09-25T22:46:57.166Z,87.89
2022-09-25T22:49:26.076Z,87.71
2022-09-25T22:51:54.849Z,87.57
2022-09-25T22:54:23.649Z,88.12
2022-09-25T22:56:53.356Z,88.60
2022-09-25T22:59:21.804Z,88.66
2022-09-25T23:01:52.840Z,88.77
2022-09-25T23:04:23.969Z,88.74
2022-09-25T23:06:53.078Z,88.62
2022-09-25T23:09:25.205Z,88.56
2022-09-25T23:11:55.015Z,88.59
2022-09-25T23:14:28.400Z,88.71
2022-09-25T23:16:57.246Z,88.56
2022-09-25T23:19:26.058Z,88.56
2022-09-25T23:21:55.505Z,88.55
2022-09-25T23:24:24.526Z,88.39
2022-09-25T23:26:53.568Z,88.12
2022-09-25T23:29:22.565Z,88.08
2022-09-25T23:31:51.719Z,88.14
2022-09-25T23:34:20.637Z,87.94
2022-09-25T23:36:49.059Z,88.11
2022-09-25T23:39:19.453Z,87.98
2022-09-25T23:41:48.669Z,87.80
2022-09-25T23:44:17.323Z,87.70
2022-09-25T23:46:45.874Z,87.65
2022-09-25T23:49:15.251Z,87.68
2022-09-25T23:51:45.613Z,87.84
2022-09-25T23:54:14.260Z,87.83
2022-09-25T23:56:43.085Z,87.88
2022-09-25T23:59:14.691Z,87.77
